RestleSS Of Auckland — ZM2627 — position and weather

sailwx.info

Track history (hours):
 
Tides and Currents Weather Stations Pressure Air Temp Water Temp Dewpoint Dewpoint Depression Visibility Wind Speed Wind Dir Waves Ship Positions

RestleSS Of Auckland

Last reported at 2017-Sep-27 18:15 UTC. Time now 2017-Oct-19 23:55 UTC.
Position N 38°55' W 076°25'.
Warning: this ship's position is 22 days out of date.

Length 15 m.

Type: Sailing vessel. MMSI: 512002462.

Date/timePositionNaut miles runAvg speedWind from/ knotsBaromVisibWave heightAir tempDewpointWater temp
2017-Sep-27 18:15N 38°55' W 076°25'2 7.1
2017-Sep-27 18:01N 38°56' W 076°26'3 5.7
2017-Sep-27 17:30N 38°58' W 076°28'0 0.9
2017-Sep-27 17:00N 38°58' W 076°28'1 1.6
2017-Sep-27 16:30N 38°59' W 076°29'0 0.0
2017-Sep-26 15:13N 38°59' W 076°29'0 0.0
2017-Sep-26 14:58N 38°59' W 076°29'0 0.0
2017-Sep-26 14:28N 38°59' W 076°29'0 0.3
2017-Sep-26 13:58N 38°58' W 076°29'0 0.0
2017-Sep-26 13:28N 38°58' W 076°29'0 0.0
2017-Sep-26 00:58N 38°59' W 076°29'0 0.0
2017-Sep-26 00:28N 38°59' W 076°29'0 0.0
2017-Sep-25 23:58N 38°59' W 076°29'0 0.0
2017-Sep-25 23:28N 38°59' W 076°29'0 0.0
2017-Sep-25 22:58N 38°59' W 076°29'0 0.0
2017-Sep-25 22:28N 38°59' W 076°29'0 0.0
2017-Sep-25 21:58N 38°59' W 076°29'0 0.0
2017-Sep-25 21:28N 38°59' W 076°29'0 0.0
2017-Sep-25 20:58N 38°59' W 076°29'0 0.0
2017-Sep-25 20:28N 38°59' W 076°29'0 0.0
2017-Sep-25 19:58N 38°59' W 076°29'0 0.2
2017-Sep-25 19:30N 38°59' W 076°29'3 5.2
2017-Sep-25 18:59N 38°57' W 076°26'2 3.4
2017-Sep-25 18:30N 38°58' W 076°28'1 0.0
2017-Sep-24 18:10N 38°58' W 076°27'1 5.7
2017-Sep-24 17:57N 38°57' W 076°26'  
2017-Sep-19 20:57N 39°22' W 075°54'2 4.4
2017-Sep-19 20:27N 39°23' W 075°57'0 0.0
2017-Sep-19 18:28N 39°23' W 075°57'0 0.0
2017-Sep-19 17:58N 39°23' W 075°57'0 0.0
2017-Sep-19 17:25N 39°23' W 075°57'0 0.0
2017-Sep-19 15:01N 39°23' W 075°57'0 0.0
2017-Sep-19 14:49N 39°23' W 075°57'0 0.0
2017-Sep-19 14:28N 39°23' W 075°57'0 0.0
2017-Sep-19 13:58N 39°23' W 075°57'0 0.0
2017-Sep-19 13:28N 39°23' W 075°57'0 0.0
2017-Sep-19 12:58N 39°23' W 075°57'0 0.0
2017-Sep-19 12:28N 39°23' W 075°57'0 0.0
2017-Sep-19 11:58N 39°23' W 075°57'  
Track history (hours):
 
Tides and Currents Weather Stations Pressure Air Temp Water Temp Dewpoint Dewpoint Depression Visibility Wind Speed Wind Dir Waves Ship Positions

RestleSS Of Auckland

Last reported at 2017-Sep-27 18:15 UTC. Time now 2017-Oct-19 23:55 UTC.
Position N 38°55' W 076°25'.
Warning: this ship's position is 22 days out of date.

Length 15 m.

Type: Sailing vessel. MMSI: 512002462.

Date/timePositionNaut miles runAvg speedWind from/ knotsBaromVisibWave heightAir tempDewpointWater temp
2017-Sep-27 18:15N 38°55' W 076°25'2 7.1
2017-Sep-27 18:01N 38°56' W 076°26'3 5.7
2017-Sep-27 17:30N 38°58' W 076°28'0 0.9
2017-Sep-27 17:00N 38°58' W 076°28'1 1.6
2017-Sep-27 16:30N 38°59' W 076°29'0 0.0
2017-Sep-26 15:13N 38°59' W 076°29'0 0.0
2017-Sep-26 14:58N 38°59' W 076°29'0 0.0
2017-Sep-26 14:28N 38°59' W 076°29'0 0.3
2017-Sep-26 13:58N 38°58' W 076°29'0 0.0
2017-Sep-26 13:28N 38°58' W 076°29'0 0.0
2017-Sep-26 00:58N 38°59' W 076°29'0 0.0
2017-Sep-26 00:28N 38°59' W 076°29'0 0.0
2017-Sep-25 23:58N 38°59' W 076°29'0 0.0
2017-Sep-25 23:28N 38°59' W 076°29'0 0.0
2017-Sep-25 22:58N 38°59' W 076°29'0 0.0
2017-Sep-25 22:28N 38°59' W 076°29'0 0.0
2017-Sep-25 21:58N 38°59' W 076°29'0 0.0
2017-Sep-25 21:28N 38°59' W 076°29'0 0.0
2017-Sep-25 20:58N 38°59' W 076°29'0 0.0
2017-Sep-25 20:28N 38°59' W 076°29'0 0.0
2017-Sep-25 19:58N 38°59' W 076°29'0 0.2
2017-Sep-25 19:30N 38°59' W 076°29'3 5.2
2017-Sep-25 18:59N 38°57' W 076°26'2 3.4
2017-Sep-25 18:30N 38°58' W 076°28'1 0.0
2017-Sep-24 18:10N 38°58' W 076°27'1 5.7
2017-Sep-24 17:57N 38°57' W 076°26'  
2017-Sep-19 20:57N 39°22' W 075°54'2 4.4
2017-Sep-19 20:27N 39°23' W 075°57'0 0.0
2017-Sep-19 18:28N 39°23' W 075°57'0 0.0
2017-Sep-19 17:58N 39°23' W 075°57'0 0.0
2017-Sep-19 17:25N 39°23' W 075°57'0 0.0
2017-Sep-19 15:01N 39°23' W 075°57'0 0.0
2017-Sep-19 14:49N 39°23' W 075°57'0 0.0
2017-Sep-19 14:28N 39°23' W 075°57'0 0.0
2017-Sep-19 13:58N 39°23' W 075°57'0 0.0
2017-Sep-19 13:28N 39°23' W 075°57'0 0.0
2017-Sep-19 12:58N 39°23' W 075°57'0 0.0
2017-Sep-19 12:28N 39°23' W 075°57'0 0.0
2017-Sep-19 11:58N 39°23' W 075°57'  

Dump ship's entire track history